createdAt,value
2016-07-03T10:16:57.697Z,18240
2016-07-03T10:17:57.712Z,18848
2016-07-03T10:18:57.774Z,17664
2016-07-03T10:19:57.727Z,19520
2016-07-03T10:20:57.712Z,22112
2016-07-03T10:21:57.988Z,21664
2016-07-03T10:22:57.735Z,22496
2016-07-03T10:23:57.780Z,21472
2016-07-03T10:24:58.010Z,18688
2016-07-03T10:25:57.739Z,15624
2016-07-03T10:26:57.774Z,13448
2016-07-03T10:27:57.743Z,11900
2016-07-03T10:28:57.720Z,12636
2016-07-03T10:29:57.693Z,16304
2016-07-03T10:30:57.665Z,18044
2016-07-03T10:31:57.731Z,15080
2016-07-03T10:32:57.699Z,18464
2016-07-03T10:33:57.736Z,19648
2016-07-03T10:34:57.682Z,22048
2016-07-03T10:35:57.707Z,20928
2016-07-03T10:36:57.713Z,17576
2016-07-03T10:37:57.826Z,13856
2016-07-03T10:38:57.687Z,14324
2016-07-03T10:39:57.760Z,14892
2016-07-03T10:40:57.878Z,12832
2016-07-03T10:41:57.822Z,13204
2016-07-03T10:42:57.818Z,15352
2016-07-03T10:43:57.752Z,15856
2016-07-03T10:44:57.723Z,16948
2016-07-03T10:45:57.711Z,17876
2016-07-03T10:46:57.826Z,14956
2016-07-03T10:47:57.732Z,11988
2016-07-03T10:48:57.778Z,11200
2016-07-03T10:49:57.889Z,10952
2016-07-03T10:50:57.917Z,10036
2016-07-03T10:51:58.750Z,10160
2016-07-03T10:52:57.985Z,11480
2016-07-03T10:53:57.723Z,14244
2016-07-03T10:54:57.690Z,15944
2016-07-03T10:55:57.699Z,17364
2016-07-03T10:56:57.716Z,19456
2016-07-03T10:57:57.739Z,15832
2016-07-03T10:58:57.738Z,11760
2016-07-03T10:59:57.714Z,10452
2016-07-03T11:00:57.763Z,9352
2016-07-03T11:01:57.716Z,11820
2016-07-03T11:02:57.796Z,14212
2016-07-03T11:03:57.993Z,15704
2016-07-03T11:04:57.951Z,13444
2016-07-03T11:05:57.869Z,14248
2016-07-03T11:06:57.780Z,18944
2016-07-03T11:07:57.861Z,20224
2016-07-03T11:08:57.803Z,18240
2016-07-03T11:09:57.832Z,15080
2016-07-03T11:10:57.810Z,13804
2016-07-03T11:11:57.900Z,12796
2016-07-03T11:12:57.787Z,13300
2016-07-03T11:13:57.860Z,15756
2016-07-03T11:14:58.073Z,14496
2016-07-03T11:15:57.951Z,16048
2016-07-03T11:16:57.820Z,18816
2016-07-03T11:17:57.757Z,17980
2016-07-03T11:18:57.752Z,20160
2016-07-03T11:19:57.840Z,18368
2016-07-03T11:20:57.770Z,17760
2016-07-03T11:21:57.771Z,17636
2016-07-03T11:22:57.739Z,17916
2016-07-03T11:23:57.744Z,16636
2016-07-03T11:24:57.832Z,17748
2016-07-03T11:25:57.743Z,17400
2016-07-03T11:26:57.872Z,18240
2016-07-03T11:27:57.730Z,16724
2016-07-03T11:28:57.804Z,17120
2016-07-03T11:29:57.801Z,14144
2016-07-03T11:30:57.908Z,12640
2016-07-03T11:31:57.796Z,13732
2016-07-03T11:32:57.745Z,12764
2016-07-03T11:33:57.734Z,13052
2016-07-03T11:34:57.795Z,13408
2016-07-03T11:35:57.815Z,11356
2016-07-03T11:36:57.759Z,10960
2016-07-03T11:37:57.799Z,11528
2016-07-03T11:38:58.240Z,12020
2016-07-03T11:39:57.812Z,11684
2016-07-03T11:40:57.754Z,10992
2016-07-03T11:41:57.814Z,11168
2016-07-03T11:42:57.821Z,11912
2016-07-03T11:43:57.782Z,15456
2016-07-03T11:44:57.775Z,18048
2016-07-03T11:45:57.771Z,18656
2016-07-03T11:46:58.510Z,18944
2016-07-03T11:47:57.867Z,19968
2016-07-03T11:48:57.905Z,18528
2016-07-03T11:49:57.833Z,17980
2016-07-03T11:50:57.879Z,20064
2016-07-03T11:51:58.509Z,16728
2016-07-03T11:52:57.935Z,14352
2016-07-03T11:53:57.879Z,14260
2016-07-03T11:54:57.830Z,14796
2016-07-03T11:55:57.905Z,14368
2016-07-03T11:56:58.056Z,14840
2016-07-03T11:57:57.866Z,15004
2016-07-03T11:58:57.923Z,14736
2016-07-03T11:59:58.646Z,13808
2016-07-03T12:00:57.858Z,12888
2016-07-03T12:01:57.894Z,14464
2016-07-03T12:02:57.871Z,14716
2016-07-03T12:03:57.924Z,14208
2016-07-03T12:04:57.815Z,13200
2016-07-03T12:05:58.573Z,11796
2016-07-03T12:06:57.877Z,11776
2016-07-03T12:07:57.868Z,11420
2016-07-03T12:08:57.847Z,9132
2016-07-03T12:09:57.886Z,7880
2016-07-03T12:10:57.839Z,7988
2016-07-03T12:11:57.817Z,7212
2016-07-03T12:12:57.808Z,6120
2016-07-03T12:13:58.134Z,5680
2016-07-03T12:14:57.808Z,5984
2016-07-03T12:15:57.900Z,7892
2016-07-03T12:16:57.804Z,10048
2016-07-03T12:17:57.922Z,11284
2016-07-03T12:18:58.115Z,13916
2016-07-03T12:19:58.012Z,16560
2016-07-03T12:20:57.971Z,19232
2016-07-03T12:21:57.937Z,20768
2016-07-03T12:22:58.370Z,21312
2016-07-03T12:23:58.501Z,21152
2016-07-03T12:24:57.937Z,21952
2016-07-03T12:25:57.842Z,21440
2016-07-03T12:26:58.151Z,19104
2016-07-03T12:27:57.994Z,15572
2016-07-03T12:28:58.142Z,12304
2016-07-03T12:29:58.171Z,11492
2016-07-03T12:30:58.764Z,13104
2016-07-03T12:31:57.952Z,13296
2016-07-03T12:32:57.969Z,13784
2016-07-03T12:33:57.886Z,16340
2016-07-03T12:34:57.995Z,20160
2016-07-03T12:35:59.010Z,21536
2016-07-03T12:36:57.978Z,21056
2016-07-03T12:37:57.984Z,20480
2016-07-03T12:38:58.066Z,20224
2016-07-03T12:39:58.243Z,20896
2016-07-03T12:40:57.912Z,19840
2016-07-03T12:41:58.004Z,18304
2016-07-03T12:42:57.871Z,18212
2016-07-03T12:43:57.840Z,17772
2016-07-03T12:44:58.085Z,18592
2016-07-03T12:45:57.833Z,16564
2016-07-03T12:46:57.874Z,12512
2016-07-03T12:47:58.540Z,10360
2016-07-03T12:48:58.076Z,10220
2016-07-03T12:49:58.544Z,9872
2016-07-03T12:50:58.073Z,9300
2016-07-03T12:51:57.811Z,9116
2016-07-03T12:52:57.865Z,9324
2016-07-03T12:53:57.835Z,9580
2016-07-03T12:54:57.913Z,9424
2016-07-03T12:55:58.103Z,8888
2016-07-03T12:56:57.943Z,8440
2016-07-03T12:57:57.969Z,8264
2016-07-03T12:58:57.946Z,7904
2016-07-03T12:59:58.012Z,7840
2016-07-03T13:00:58.108Z,7980
2016-07-03T13:01:57.980Z,8788
2016-07-03T13:02:58.091Z,9712
2016-07-03T13:03:57.970Z,11532
2016-07-03T13:04:58.270Z,13740
2016-07-03T13:05:58.213Z,15276
2016-07-03T13:06:57.931Z,16004
2016-07-03T13:07:57.880Z,16224
2016-07-03T13:08:57.920Z,15016
2016-07-03T13:09:57.876Z,13956
2016-07-03T13:10:57.971Z,12868
2016-07-03T13:11:57.991Z,11704
2016-07-03T13:12:57.819Z,10708
2016-07-03T13:13:57.906Z,10092
2016-07-03T13:14:57.874Z,9608
2016-07-03T13:15:57.917Z,9024
2016-07-03T13:16:57.958Z,8432
2016-07-03T13:17:57.897Z,8056
2016-07-03T13:18:57.918Z,7928
2016-07-03T13:19:58.565Z,7988
2016-07-03T13:20:57.854Z,7944
2016-07-03T13:21:57.863Z,7700
2016-07-03T13:22:57.947Z,7652
2016-07-03T13:23:57.866Z,7860
2016-07-03T13:24:57.856Z,7812
2016-07-03T13:25:57.867Z,7584
2016-07-03T13:26:57.910Z,7760
2016-07-03T13:27:57.868Z,7756
2016-07-03T13:28:57.898Z,7456
2016-07-03T13:29:57.905Z,7420
2016-07-03T13:30:58.104Z,7544
2016-07-03T13:32:02.902Z,7856
2016-07-03T13:32:57.877Z,8544
2016-07-03T13:33:57.903Z,9304
2016-07-03T13:34:57.933Z,10016
2016-07-03T13:35:58.059Z,10272
2016-07-03T13:36:57.894Z,10788
2016-07-03T13:37:58.440Z,11232
2016-07-03T13:38:58.314Z,11704
2016-07-03T13:39:58.016Z,11872
2016-07-03T13:40:57.905Z,12500
2016-07-03T13:41:58.192Z,12792
2016-07-03T13:42:58.026Z,12952
2016-07-03T13:43:58.061Z,13316
2016-07-03T13:44:57.978Z,13264
2016-07-03T13:45:57.875Z,13232
2016-07-03T13:46:57.939Z,12864
2016-07-03T13:47:57.992Z,12748
2016-07-03T13:48:58.399Z,12140
2016-07-03T13:49:57.906Z,11844
2016-07-03T13:50:57.946Z,11240
2016-07-03T13:51:57.990Z,10456
2016-07-03T13:52:58.514Z,9640
2016-07-03T13:53:57.934Z,8824
2016-07-03T13:54:58.007Z,8224
2016-07-03T13:55:59.645Z,7760
2016-07-03T13:56:57.884Z,7268
2016-07-03T13:57:58.005Z,6852
2016-07-03T13:58:58.007Z,6536
2016-07-03T13:59:57.932Z,6244
2016-07-03T14:00:58.189Z,5964
2016-07-03T14:01:57.902Z,5680
2016-07-03T14:02:57.879Z,5420
2016-07-03T14:03:57.907Z,5136
2016-07-03T14:04:58.312Z,4860
2016-07-03T14:05:58.016Z,4580
2016-07-03T14:06:58.001Z,4368
2016-07-03T14:07:57.883Z,4208
2016-07-03T14:08:58.193Z,4088
2016-07-03T14:09:57.931Z,4000
2016-07-03T14:10:58.031Z,3948
2016-07-03T14:11:58.008Z,3940
2016-07-03T14:12:58.000Z,3920
2016-07-03T14:13:57.985Z,3912
2016-07-03T14:14:57.905Z,3916
2016-07-03T14:15:57.913Z,3892
2016-07-03T14:16:57.991Z,3892
2016-07-03T14:17:57.916Z,3948
2016-07-03T14:18:57.961Z,3964
2016-07-03T14:19:58.188Z,3960
2016-07-03T14:20:57.922Z,3972
2016-07-03T14:21:58.050Z,3964
2016-07-03T14:22:58.594Z,3956
2016-07-03T14:23:57.933Z,3928
2016-07-03T14:24:58.068Z,3912
2016-07-03T14:25:58.125Z,3900
2016-07-03T14:26:58.280Z,3908
2016-07-03T14:27:58.010Z,3932
2016-07-03T14:28:58.550Z,3936
2016-07-03T14:29:57.947Z,3940
2016-07-03T14:30:58.124Z,3960
2016-07-03T14:31:58.953Z,3960
2016-07-03T14:32:58.065Z,3984
2016-07-03T14:33:58.221Z,4048
2016-07-03T14:34:58.390Z,4148
2016-07-03T14:35:57.966Z,4252
2016-07-03T14:36:58.298Z,4316
2016-07-03T14:37:58.021Z,4364
2016-07-03T14:38:58.112Z,4404
2016-07-03T14:39:57.958Z,4428
2016-07-03T14:40:57.972Z,4468
2016-07-03T14:41:57.996Z,4468
2016-07-03T14:42:57.997Z,4104
2016-07-03T14:43:57.978Z,4412
2016-07-03T14:44:58.233Z,4324
2016-07-03T14:45:58.022Z,4440
2016-07-03T14:46:58.698Z,4396
2016-07-03T14:47:58.028Z,4408
2016-07-03T14:48:58.048Z,4424
2016-07-03T14:49:57.999Z,4440
2016-07-03T14:50:57.970Z,4436
2016-07-03T14:51:57.947Z,4420
2016-07-03T14:52:58.021Z,4416
2016-07-03T14:53:58.032Z,4444
2016-07-03T14:54:57.983Z,4480
2016-07-03T14:55:57.962Z,4468
2016-07-03T14:56:57.998Z,4456
2016-07-03T14:57:57.970Z,4428
2016-07-03T14:58:58.088Z,4396
2016-07-03T14:59:58.357Z,4360
2016-07-03T15:00:58.003Z,4348
2016-07-03T15:01:58.093Z,4360
2016-07-03T15:02:58.499Z,4356
2016-07-03T15:03:58.044Z,4352
2016-07-03T15:04:58.363Z,4364
2016-07-03T15:05:57.976Z,4416
2016-07-03T15:06:58.036Z,4484
2016-07-03T15:07:57.964Z,4540
2016-07-03T15:08:58.017Z,4564
2016-07-03T15:09:58.063Z,4608
2016-07-03T15:10:58.121Z,4680
2016-07-03T15:11:58.414Z,4760
2016-07-03T15:12:58.196Z,4848
2016-07-03T15:13:58.016Z,5244
2016-07-03T15:14:58.094Z,5540
2016-07-03T15:15:58.033Z,5400
2016-07-03T15:16:58.192Z,5376
2016-07-03T15:17:58.131Z,5568
2016-07-03T15:18:57.993Z,5748
2016-07-03T15:19:58.006Z,5740
2016-07-03T15:20:58.997Z,5516
2016-07-03T15:21:58.104Z,5332
2016-07-03T15:22:57.977Z,5212
2016-07-03T15:23:58.291Z,5172
2016-07-03T15:24:58.186Z,5512
2016-07-03T15:25:58.179Z,5972
2016-07-03T15:26:58.392Z,6224
2016-07-03T15:27:58.114Z,6420
2016-07-03T15:28:58.532Z,6156
2016-07-03T15:29:58.378Z,5584
2016-07-03T15:30:58.154Z,5256
2016-07-03T15:31:58.141Z,5392
2016-07-03T15:32:57.952Z,5588
2016-07-03T15:33:57.973Z,5712
2016-07-03T15:34:58.263Z,6108
2016-07-03T15:35:57.982Z,6104
2016-07-03T15:36:57.999Z,5484
2016-07-03T15:37:58.044Z,4980
2016-07-03T15:38:58.096Z,5176
2016-07-03T15:39:58.079Z,6616
2016-07-03T15:40:58.129Z,7656
2016-07-03T15:41:58.015Z,8284
2016-07-03T15:42:58.206Z,8336
2016-07-03T15:43:58.271Z,8572
2016-07-03T15:44:58.072Z,8908
2016-07-03T15:45:58.064Z,9004
2016-07-03T15:46:58.057Z,9460
2016-07-03T15:47:58.647Z,10544
2016-07-03T15:48:58.024Z,9788
2016-07-03T15:49:58.060Z,8556
2016-07-03T15:50:58.027Z,7536
2016-07-03T15:51:58.011Z,6600
2016-07-03T15:52:58.173Z,6120
2016-07-03T15:53:58.227Z,6280
2016-07-03T15:54:58.061Z,7420
2016-07-03T15:55:58.025Z,9372
2016-07-03T15:56:57.998Z,9456
2016-07-03T15:57:57.996Z,8272
2016-07-03T15:58:58.118Z,7220
2016-07-03T15:59:58.055Z,6704
2016-07-03T16:00:58.062Z,6404
2016-07-03T16:01:58.130Z,6388
2016-07-03T16:02:58.074Z,6540
2016-07-03T16:03:58.047Z,6112
2016-07-03T16:04:58.113Z,5592
2016-07-03T16:05:58.118Z,5400
2016-07-03T16:06:58.021Z,5248
2016-07-03T16:07:58.315Z,4660
2016-07-03T16:08:59.157Z,3864
2016-07-03T16:09:58.868Z,3204
2016-07-03T16:10:58.627Z,2924
2016-07-03T16:11:58.320Z,2996
2016-07-03T16:12:58.102Z,3172
2016-07-03T16:13:58.104Z,3296
2016-07-03T16:14:58.211Z,3188
2016-07-03T16:15:58.146Z,3076
2016-07-03T16:16:58.862Z,2944
2016-07-03T16:17:58.222Z,2708
2016-07-03T16:18:58.120Z,2412
2016-07-03T16:19:58.059Z,2216
2016-07-03T16:20:58.719Z,2168
2016-07-03T16:21:58.129Z,2184
2016-07-03T16:22:58.279Z,2140
2016-07-03T16:23:58.239Z,2060
2016-07-03T16:24:58.356Z,2016
2016-07-03T16:25:58.166Z,2076
2016-07-03T16:26:58.206Z,2244
2016-07-03T16:27:58.158Z,2548
2016-07-03T16:28:58.085Z,2900
2016-07-03T16:29:58.156Z,3232
2016-07-03T16:30:58.060Z,3508
2016-07-03T16:31:58.185Z,3488
2016-07-03T16:32:58.235Z,3208
2016-07-03T16:33:58.060Z,2820
2016-07-03T16:34:58.162Z,2364
2016-07-03T16:35:58.063Z,1764
2016-07-03T16:36:58.153Z,1384
2016-07-03T16:37:58.216Z,1172
2016-07-03T16:38:58.052Z,1120
2016-07-03T16:39:58.079Z,1104
2016-07-03T16:40:58.060Z,1128
2016-07-03T16:41:58.089Z,1172
2016-07-03T16:42:58.114Z,1272
2016-07-03T16:43:58.090Z,1364
2016-07-03T16:44:58.521Z,1476
2016-07-03T16:45:58.103Z,1640
2016-07-03T16:46:58.066Z,1812
2016-07-03T16:47:58.076Z,1984
2016-07-03T16:48:58.082Z,2172
2016-07-03T16:49:58.192Z,2312
2016-07-03T16:50:58.085Z,2420
2016-07-03T16:51:58.093Z,2620
2016-07-03T16:52:58.211Z,2904
2016-07-03T16:53:58.516Z,3216
2016-07-03T16:54:58.139Z,3540
2016-07-03T16:55:58.229Z,3892
2016-07-03T16:56:58.151Z,4244
2016-07-03T16:57:58.073Z,4604
2016-07-03T16:58:58.102Z,5080
2016-07-03T16:59:58.068Z,5636
2016-07-03T17:00:58.051Z,6252
2016-07-03T17:01:58.065Z,6828
2016-07-03T17:02:58.174Z,7256
2016-07-03T17:03:58.112Z,7548
2016-07-03T17:04:58.106Z,7636
2016-07-03T17:05:58.157Z,7616
2016-07-03T17:06:59.763Z,7552
2016-07-03T17:07:58.186Z,7516
2016-07-03T17:08:58.180Z,7532
2016-07-03T17:09:58.062Z,7456
2016-07-03T17:10:58.273Z,7052
2016-07-03T17:11:58.060Z,6424
2016-07-03T17:12:58.351Z,5896
2016-07-03T17:13:58.065Z,5676
2016-07-03T17:14:58.125Z,5672
2016-07-03T17:15:58.069Z,5744
2016-07-03T17:16:58.116Z,5744
2016-07-03T17:17:58.234Z,5648
2016-07-03T17:18:58.121Z,5544
2016-07-03T17:19:58.120Z,5584
2016-07-03T17:20:58.377Z,5296
2016-07-03T17:21:58.294Z,5000
2016-07-03T17:22:58.691Z,5288
2016-07-03T17:23:58.454Z,5404
2016-07-03T17:24:58.175Z,5536
2016-07-03T17:25:58.183Z,6148
2016-07-03T17:26:58.128Z,6776
2016-07-03T17:27:58.374Z,7228
2016-07-03T17:28:58.107Z,7692
2016-07-03T17:29:58.461Z,8132
2016-07-03T17:30:58.131Z,8672
2016-07-03T17:31:58.135Z,8548
2016-07-03T17:32:58.168Z,8608
2016-07-03T17:33:58.103Z,8280
2016-07-03T17:34:58.111Z,7852
2016-07-03T17:35:58.127Z,7476
2016-07-03T17:36:58.179Z,7144
2016-07-03T17:37:58.067Z,6928
2016-07-03T17:38:58.116Z,6840
2016-07-03T17:39:58.093Z,6444
2016-07-03T17:40:58.084Z,5964
2016-07-03T17:41:58.122Z,5372
2016-07-03T17:42:58.186Z,4964
2016-07-03T17:43:59.774Z,4692
2016-07-03T17:44:58.094Z,4504
2016-07-03T17:45:58.099Z,4332
2016-07-03T17:46:58.173Z,4224
2016-07-03T17:47:58.139Z,4176
2016-07-03T17:48:58.289Z,4208
2016-07-03T17:49:58.098Z,4384
2016-07-03T17:50:58.159Z,4568
2016-07-03T17:51:58.117Z,4672
2016-07-03T17:52:58.234Z,4604
2016-07-03T17:53:58.127Z,4408
2016-07-03T17:54:58.428Z,4128
2016-07-03T17:55:58.655Z,3868
2016-07-03T17:56:59.360Z,3476
2016-07-03T17:57:58.331Z,3288
2016-07-03T17:58:58.155Z,3108
2016-07-03T17:59:58.472Z,2932
2016-07-03T18:00:58.309Z,2768
2016-07-03T18:01:58.373Z,2632
2016-07-03T18:02:59.297Z,2536
2016-07-03T18:03:58.284Z,2508
2016-07-03T18:04:58.278Z,2516
2016-07-03T18:05:58.204Z,2572
2016-07-03T18:06:58.185Z,2760
2016-07-03T18:07:58.212Z,2904
2016-07-03T18:08:58.183Z,2960
2016-07-03T18:09:58.421Z,2960
2016-07-03T18:10:58.350Z,2896
2016-07-03T18:11:58.233Z,2892
2016-07-03T18:12:58.252Z,2944
2016-07-03T18:13:58.254Z,3016
2016-07-03T18:14:58.224Z,3076
2016-07-03T18:15:58.242Z,3024
2016-07-03T18:16:58.551Z,2972
2016-07-03T18:17:58.268Z,2932
2016-07-03T18:18:58.432Z,2792
2016-07-03T18:19:58.438Z,2664
2016-07-03T18:20:58.550Z,2516
2016-07-03T18:21:58.676Z,2308
2016-07-03T18:22:58.580Z,2048
2016-07-03T18:23:58.302Z,1860
2016-07-03T18:24:59.264Z,1744
2016-07-03T18:25:58.207Z,1680
2016-07-03T18:26:58.181Z,1644
2016-07-03T18:27:58.272Z,1624
2016-07-03T18:28:58.246Z,1564
2016-07-03T18:29:58.333Z,1564
2016-07-03T18:30:58.517Z,1540
2016-07-03T18:31:58.452Z,1508
2016-07-03T18:32:58.354Z,1448
2016-07-03T18:33:58.321Z,1376
2016-07-03T18:34:58.636Z,1392
2016-07-03T18:35:58.308Z,1460
2016-07-03T18:36:58.283Z,1500
2016-07-03T18:37:58.263Z,1524
2016-07-03T18:38:58.679Z,1696
2016-07-03T18:39:58.398Z,2000
2016-07-03T18:40:58.342Z,2440
2016-07-03T18:41:58.434Z,2992
2016-07-03T18:42:58.632Z,3696
2016-07-03T18:43:58.415Z,4308
2016-07-03T18:44:58.373Z,4608
2016-07-03T18:45:58.460Z,4480
2016-07-03T18:46:58.251Z,4172
2016-07-03T18:47:58.377Z,3816
2016-07-03T18:48:58.435Z,3604
2016-07-03T18:49:58.304Z,3500
2016-07-03T18:50:58.720Z,3456
2016-07-03T18:51:58.321Z,3328
2016-07-03T18:52:58.706Z,3172
2016-07-03T18:53:59.033Z,3000
2016-07-03T18:54:58.513Z,2880
2016-07-03T18:55:58.486Z,2788
2016-07-03T18:56:58.313Z,2700
2016-07-03T18:57:58.252Z,2680
2016-07-03T18:58:58.670Z,2696
2016-07-03T18:59:58.991Z,2724
2016-07-03T19:00:58.438Z,2748
2016-07-03T19:01:58.439Z,2696
2016-07-03T19:02:58.587Z,2628
2016-07-03T19:03:58.411Z,2536
2016-07-03T19:04:58.516Z,2396
2016-07-03T19:05:58.265Z,2252
2016-07-03T19:06:58.726Z,2136
2016-07-03T19:07:58.738Z,2036
2016-07-03T19:08:58.748Z,1960
2016-07-03T19:10:00.129Z,1896
2016-07-03T19:10:58.438Z,1832
2016-07-03T19:11:58.652Z,1760
2016-07-03T19:12:58.320Z,1680
2016-07-03T19:13:58.600Z,1616
2016-07-03T19:14:58.306Z,1604
2016-07-03T19:15:58.368Z,1612
2016-07-03T19:16:58.411Z,1540
2016-07-03T19:17:58.454Z,1416
2016-07-03T19:18:58.834Z,1328
2016-07-03T19:19:58.282Z,1268
2016-07-03T19:20:59.214Z,1224
2016-07-03T19:21:58.305Z,1192
2016-07-03T19:22:58.405Z,1152
2016-07-03T19:23:58.593Z,1108
2016-07-03T19:24:58.548Z,1080
2016-07-03T19:25:58.510Z,1056
2016-07-03T19:26:58.436Z,1040
2016-07-03T19:27:58.367Z,1032
2016-07-03T19:28:58.378Z,1016
2016-07-03T19:29:58.437Z,976
2016-07-03T19:30:58.547Z,912
2016-07-03T19:31:58.291Z,856
2016-07-03T19:32:58.477Z,812
2016-07-03T19:33:58.276Z,768
2016-07-03T19:34:59.392Z,724
2016-07-03T19:35:58.333Z,696
2016-07-03T19:36:58.298Z,664
2016-07-03T19:37:58.763Z,644
2016-07-03T19:38:58.445Z,620
2016-07-03T19:39:59.685Z,600
2016-07-03T19:40:58.358Z,576
2016-07-03T19:41:58.303Z,556
2016-07-03T19:42:58.825Z,532
2016-07-03T19:43:58.280Z,512
2016-07-03T19:44:58.395Z,484
2016-07-03T19:45:58.580Z,444
2016-07-03T19:46:58.306Z,404
2016-07-03T19:47:58.643Z,364
2016-07-03T19:48:58.358Z,328
2016-07-03T19:49:58.369Z,300
2016-07-03T19:50:59.167Z,276
2016-07-03T19:51:58.355Z,256
2016-07-03T19:52:58.963Z,236
2016-07-03T19:53:58.294Z,220
2016-07-03T19:54:58.401Z,204
2016-07-03T19:55:58.812Z,192
2016-07-03T19:56:58.468Z,176
2016-07-03T19:57:58.454Z,164
2016-07-03T19:58:58.432Z,152
2016-07-03T19:59:58.562Z,140
2016-07-03T20:00:58.392Z,132
2016-07-03T20:01:58.569Z,120
2016-07-03T20:02:58.543Z,112
2016-07-03T20:03:58.511Z,100
2016-07-03T20:04:58.423Z,92
2016-07-03T20:05:58.362Z,80
2016-07-03T20:06:58.638Z,72
2016-07-03T20:07:58.403Z,68
2016-07-03T20:08:58.444Z,60
2016-07-03T20:09:58.530Z,52
2016-07-03T20:10:58.360Z,48
2016-07-03T20:11:58.513Z,44
2016-07-03T20:12:58.730Z,40
2016-07-03T20:13:58.553Z,36
2016-07-03T20:14:59.078Z,32
2016-07-03T20:15:59.397Z,32
2016-07-03T20:16:58.456Z,28
2016-07-03T20:17:59.130Z,24
2016-07-03T20:18:59.165Z,20
2016-07-03T20:19:58.365Z,20
2016-07-03T20:20:58.363Z,16
2016-07-03T20:21:58.356Z,16
2016-07-03T20:22:58.497Z,12
2016-07-03T20:23:58.408Z,12
2016-07-03T20:24:58.387Z,8
2016-07-03T20:25:58.459Z,8
2016-07-03T20:26:58.332Z,8
2016-07-03T20:27:58.315Z,8
2016-07-03T20:28:58.329Z,8
2016-07-03T20:29:58.366Z,4
2016-07-03T20:30:58.390Z,4
2016-07-03T20:31:58.327Z,8
2016-07-03T20:32:58.598Z,4
2016-07-03T20:33:58.380Z,4
2016-07-03T20:34:58.391Z,4
2016-07-03T20:35:58.420Z,4
2016-07-03T20:36:58.776Z,4
2016-07-03T20:37:58.411Z,4
2016-07-03T20:38:58.415Z,0
2016-07-03T20:39:58.386Z,0
2016-07-03T20:40:58.397Z,4
2016-07-03T20:41:58.324Z,4
2016-07-03T20:42:58.523Z,4
2016-07-03T20:43:58.483Z,4
2016-07-03T20:44:58.500Z,4
2016-07-03T20:45:58.506Z,4
2016-07-03T20:46:58.414Z,0
2016-07-03T20:47:58.712Z,0
2016-07-03T20:49:01.557Z,0
2016-07-03T20:49:58.729Z,4
2016-07-03T20:50:58.578Z,4
2016-07-03T20:51:58.331Z,4
2016-07-03T20:52:58.479Z,4
2016-07-03T20:53:58.326Z,4
2016-07-03T20:54:58.354Z,0
2016-07-03T20:55:58.391Z,0
2016-07-03T20:56:58.396Z,0
2016-07-03T20:57:58.353Z,0
2016-07-03T20:58:58.332Z,0
2016-07-03T20:59:58.396Z,0
2016-07-03T21:00:58.852Z,0
2016-07-03T21:01:59.409Z,0
2016-07-03T21:02:59.260Z,0
2016-07-03T21:03:58.934Z,0
2016-07-03T21:04:59.255Z,0
2016-07-03T21:05:59.842Z,0
2016-07-03T21:06:59.010Z,0
2016-07-03T21:07:59.614Z,0
2016-07-03T21:08:58.613Z,0
2016-07-03T21:09:58.943Z,0
2016-07-03T21:10:58.843Z,0
2016-07-03T21:11:58.966Z,0
2016-07-03T21:12:58.777Z,0
2016-07-03T21:14:11.385Z,0
2016-07-03T21:15:10.950Z,0
2016-07-03T21:16:10.957Z,0
2016-07-03T21:17:11.521Z,0
2016-07-03T21:18:11.559Z,0
2016-07-03T21:19:10.973Z,0
2016-07-03T21:20:11.102Z,0
2016-07-03T21:21:11.591Z,0
2016-07-03T21:22:10.955Z,0
2016-07-03T21:23:10.900Z,0
2016-07-03T21:24:11.161Z,0
2016-07-03T21:25:11.021Z,0
2016-07-03T21:26:10.992Z,0
2016-07-03T21:27:10.928Z,0
2016-07-03T21:28:10.904Z,0
2016-07-03T21:29:11.250Z,0
2016-07-03T21:30:11.171Z,0
2016-07-03T21:31:11.758Z,0
2016-07-03T21:32:11.399Z,0
2016-07-03T21:33:10.930Z,0
2016-07-03T21:34:10.942Z,0
2016-07-03T21:35:11.174Z,0
2016-07-03T21:36:11.149Z,0
2016-07-03T21:37:11.384Z,0
2016-07-03T21:38:11.365Z,0
2016-07-03T21:39:11.083Z,0
2016-07-03T21:40:11.161Z,0
2016-07-03T21:41:11.370Z,0
2016-07-03T21:42:11.139Z,0
2016-07-03T21:43:11.374Z,0
2016-07-03T21:44:10.935Z,0
2016-07-03T21:45:11.779Z,0
2016-07-03T21:46:10.976Z,0
2016-07-03T21:47:10.909Z,0
2016-07-03T21:48:11.104Z,0
2016-07-03T21:49:11.194Z,0
2016-07-03T21:50:10.940Z,0
2016-07-03T21:51:10.989Z,0
2016-07-03T21:52:10.960Z,0
2016-07-03T21:53:10.888Z,0
2016-07-03T21:54:10.999Z,0
2016-07-03T21:55:10.917Z,0
2016-07-03T21:56:10.899Z,0
2016-07-03T21:57:10.959Z,0
2016-07-03T21:58:10.912Z,0
2016-07-03T21:59:10.881Z,0
2016-07-03T22:00:10.914Z,0
2016-07-03T22:01:10.901Z,0
2016-07-03T22:02:31.859Z,0
2016-07-03T22:03:10.944Z,0
2016-07-03T22:04:10.983Z,0
2016-07-03T22:05:10.920Z,0
2016-07-03T22:06:10.925Z,0
2016-07-03T22:07:10.909Z,0
2016-07-03T22:08:10.911Z,0
2016-07-03T22:09:10.963Z,0
2016-07-03T22:10:10.990Z,0
2016-07-03T22:11:10.957Z,0
2016-07-03T22:12:10.966Z,0
2016-07-03T22:13:10.984Z,0
2016-07-03T22:14:10.883Z,0
2016-07-03T22:15:10.956Z,0
2016-07-03T22:16:10.918Z,0
2016-07-03T22:17:11.002Z,0
2016-07-03T22:18:10.879Z,0
2016-07-03T22:19:10.899Z,0
2016-07-03T22:20:11.035Z,0
2016-07-03T22:21:11.255Z,0
2016-07-03T22:22:11.045Z,0
2016-07-03T22:23:10.931Z,0
2016-07-03T22:24:10.892Z,0
2016-07-03T22:25:11.061Z,0
2016-07-03T22:26:12.021Z,0
2016-07-03T22:27:11.094Z,0
2016-07-03T22:28:11.282Z,0
2016-07-03T22:29:11.763Z,0
2016-07-03T22:30:11.222Z,0
2016-07-03T22:31:11.311Z,0
2016-07-03T22:32:11.401Z,0
2016-07-03T22:33:11.407Z,0
2016-07-03T22:34:11.262Z,0
2016-07-03T22:35:10.935Z,0
2016-07-03T22:36:10.886Z,0
2016-07-03T22:37:11.606Z,0
2016-07-03T22:38:10.954Z,0
2016-07-03T22:39:10.981Z,0
2016-07-03T22:40:10.996Z,0
2016-07-03T22:41:10.924Z,0
2016-07-03T22:42:11.188Z,0
2016-07-03T22:43:10.974Z,0
2016-07-03T22:44:11.098Z,0
2016-07-03T22:45:10.956Z,0
2016-07-03T22:46:11.312Z,0
2016-07-03T22:47:10.950Z,0
2016-07-03T22:48:11.055Z,0
2016-07-03T22:49:10.937Z,0
2016-07-03T22:50:11.019Z,0
2016-07-03T22:51:10.952Z,0
2016-07-03T22:52:11.365Z,0
2016-07-03T22:53:10.934Z,0
2016-07-03T22:54:10.952Z,0
2016-07-03T22:55:11.041Z,0
2016-07-03T22:56:11.631Z,0
2016-07-03T22:57:11.018Z,0
2016-07-03T22:58:11.126Z,0
2016-07-03T22:59:10.985Z,0
2016-07-03T23:00:10.978Z,0
2016-07-03T23:01:11.022Z,0
2016-07-03T23:02:10.973Z,0
2016-07-03T23:03:11.057Z,0
2016-07-03T23:04:11.088Z,0
2016-07-03T23:05:11.057Z,0
2016-07-03T23:06:10.958Z,0
2016-07-03T23:07:11.017Z,0
2016-07-03T23:08:10.960Z,0
2016-07-03T23:09:10.940Z,0
2016-07-03T23:10:11.032Z,0
2016-07-03T23:11:11.000Z,0
2016-07-03T23:12:10.996Z,0
2016-07-03T23:13:11.030Z,0
2016-07-03T23:14:11.040Z,0
2016-07-03T23:15:11.013Z,0
2016-07-03T23:16:10.984Z,0
2016-07-03T23:17:11.009Z,0
2016-07-03T23:18:10.989Z,0
2016-07-03T23:19:10.986Z,0
2016-07-03T23:20:11.012Z,0
2016-07-03T23:21:10.969Z,0
2016-07-03T23:22:10.984Z,0
2016-07-03T23:23:10.995Z,0
2016-07-03T23:24:10.952Z,0
2016-07-03T23:25:11.613Z,0
2016-07-03T23:26:11.341Z,0
2016-07-03T23:27:10.956Z,0
2016-07-03T23:28:10.976Z,0
2016-07-03T23:29:11.011Z,0
2016-07-03T23:30:11.878Z,0
2016-07-03T23:31:11.833Z,0
2016-07-03T23:32:11.648Z,0
2016-07-03T23:33:11.893Z,0
2016-07-03T23:34:11.891Z,0
2016-07-03T23:35:10.956Z,0
2016-07-03T23:36:10.980Z,0
2016-07-03T23:37:10.975Z,0
2016-07-03T23:38:11.020Z,0
2016-07-03T23:39:11.588Z,0
2016-07-03T23:40:11.010Z,0
2016-07-03T23:41:10.965Z,0
2016-07-03T23:42:11.010Z,0
2016-07-03T23:43:11.656Z,0
2016-07-03T23:44:11.497Z,0
2016-07-03T23:45:10.975Z,0
2016-07-03T23:46:11.042Z,0
2016-07-03T23:47:10.963Z,0
2016-07-03T23:48:10.956Z,0
2016-07-03T23:49:10.955Z,0
2016-07-03T23:50:11.008Z,0
2016-07-03T23:51:10.953Z,0
2016-07-03T23:52:10.987Z,0
2016-07-03T23:53:10.962Z,0